Time;durP1;ratioP1;P1;durP2;ratioP2;P2;SDS_P1;SDS_P2;PMS_P1;PMS_P2;Temp;Humidity;BMP_temperature;BMP_pressure;BME280_temperature;BME280_humidity;BME280_pressure;Samples;Min_cycle;Max_cycle;Signal;HPM_P1;HPM_P2
2024/04/23 00:00:34;;;;;;;13.57;4.47;;;;;;;;;;5444064;26;20018;-70
2024/04/23 00:03:01;;;;;;;20.67;5.57;;;;;;;;;;5385205;26;19999;-70
2024/04/23 00:05:28;;;;;;;15.70;4.35;;;;;;;;;;5444949;26;19999;-71
2024/04/23 00:07:55;;;;;;;11.20;4.90;;;;;;;;;;5445135;26;20003;-71
2024/04/23 00:10:22;;;;;;;15.75;4.93;;;;;;;;;;5444993;26;20403;-71
2024/04/23 00:12:49;;;;;;;19.20;5.63;;;;;;;;;;5445554;26;20502;-70
2024/04/23 00:15:15;;;;;;;13.52;4.15;;;;;;;;;;5435665;26;20000;-71
2024/04/23 00:17:42;;;;;;;14.90;4.97;;;;;;;;;;5409471;26;20000;-70
2024/04/23 00:20:09;;;;;;;15.73;5.15;;;;;;;;;;5408663;26;20283;-71
2024/04/23 00:22:36;;;;;;;14.60;4.80;;;;;;;;;;5409060;26;20011;-70
2024/04/23 00:25:03;;;;;;;16.05;4.85;;;;;;;;;;5379108;26;20528;-71
2024/04/23 00:27:30;;;;;;;13.85;4.85;;;;;;;;;;5412669;26;20528;-71
2024/04/23 00:29:57;;;;;;;18.10;4.57;;;;;;;;;;5413036;26;20134;-71
2024/04/23 00:32:23;;;;;;;14.63;5.35;;;;;;;;;;5381752;26;20016;-70
2024/04/23 00:34:50;;;;;;;13.27;5.03;;;;;;;;;;5412792;26;20011;-71
2024/04/23 00:37:17;;;;;;;13.65;5.03;;;;;;;;;;5380879;26;20010;-71
2024/04/23 00:39:44;;;;;;;14.18;5.10;;;;;;;;;;5381532;26;19999;-71
2024/04/23 00:42:11;;;;;;;10.65;4.25;;;;;;;;;;5412143;26;19999;-71
2024/04/23 00:44:37;;;;;;;12.70;5.00;;;;;;;;;;5413127;26;20088;-71
2024/04/23 00:47:05;;;;;;;16.60;4.90;;;;;;;;;;5412575;26;20000;-71
2024/04/23 00:49:32;;;;;;;15.82;5.35;;;;;;;;;;5411952;26;20167;-71
2024/04/23 00:51:59;;;;;;;18.27;5.05;;;;;;;;;;5412409;26;20077;-71
2024/04/23 00:54:26;;;;;;;13.77;5.18;;;;;;;;;;5411952;26;20004;-71
2024/04/23 00:56:56;;;;;;;12.52;4.85;;;;;;;;;;5381592;26;20463;-71
2024/04/23 00:59:23;;;;;;;11.07;4.72;;;;;;;;;;5411784;26;20526;-71
2024/04/23 01:01:52;;;;;;;11.23;4.85;;;;;;;;;;5412408;26;20007;-71
2024/04/23 01:04:19;;;;;;;11.07;4.97;;;;;;;;;;5411777;26;20072;-71
2024/04/23 01:06:49;;;;;;;16.08;6.07;;;;;;;;;;5412379;26;20000;-71
2024/04/23 01:09:20;;;;;;;12.70;4.63;;;;;;;;;;5410469;26;20011;-71
2024/04/23 01:11:47;;;;;;;13.25;5.22;;;;;;;;;;5412486;26;20007;-71
2024/04/23 01:14:15;;;;;;;15.70;4.72;;;;;;;;;;5411333;26;20010;-70
2024/04/23 01:16:44;;;;;;;16.95;6.15;;;;;;;;;;5381865;26;20016;-70
2024/04/23 01:19:38;;;;;;;15.15;5.20;;;;;;;;;;5376437;26;19997;-70
2024/04/23 01:22:22;;;;;;;11.25;4.68;;;;;;;;;;5376302;26;20040;-70
2024/04/23 01:24:59;;;;;;;18.08;5.57;;;;;;;;;;5376618;26;20429;-71
2024/04/23 01:27:27;;;;;;;13.70;5.13;;;;;;;;;;5376097;26;20043;-71
2024/04/23 01:29:56;;;;;;;14.35;5.50;;;;;;;;;;5376794;26;20123;-70
2024/04/23 01:32:25;;;;;;;13.07;5.32;;;;;;;;;;5345761;26;20049;-70
2024/04/23 01:34:53;;;;;;;13.63;5.22;;;;;;;;;;5376322;26;20077;-70
2024/04/23 01:37:21;;;;;;;11.65;5.35;;;;;;;;;;5374660;26;20401;-71
2024/04/23 01:39:48;;;;;;;15.88;5.47;;;;;;;;;;5345515;26;20000;-71
2024/04/23 01:42:16;;;;;;;13.88;5.25;;;;;;;;;;5376067;26;20427;-70
2024/04/23 01:44:43;;;;;;;16.02;5.57;;;;;;;;;;5376745;26;20505;-71
2024/04/23 01:47:10;;;;;;;15.60;5.68;;;;;;;;;;5375742;26;20019;-70
2024/04/23 01:49:37;;;;;;;16.13;6.78;;;;;;;;;;5376183;26;20006;-71
2024/04/23 01:52:04;;;;;;;15.40;6.50;;;;;;;;;;5375722;26;20004;-71
2024/04/23 01:54:31;;;;;;;15.32;6.18;;;;;;;;;;5345499;26;20352;-70
2024/04/23 01:57:02;;;;;;;12.70;6.13;;;;;;;;;;5345707;26;20004;-71
2024/04/23 01:59:29;;;;;;;15.57;7.57;;;;;;;;;;5340845;26;20367;-71
2024/04/23 02:01:57;;;;;;;13.27;7.25;;;;;;;;;;5341377;26;20048;-71
2024/04/23 02:04:24;;;;;;;12.43;6.32;;;;;;;;;;5340881;26;20336;-71
2024/04/23 02:06:51;;;;;;;10.93;5.82;;;;;;;;;;5341635;26;20012;-69
2024/04/23 02:09:18;;;;;;;9.30;4.90;;;;;;;;;;5356498;26;20029;-70
2024/04/23 02:11:45;;;;;;;8.25;4.80;;;;;;;;;;5365211;26;20022;-71
2024/04/23 02:14:12;;;;;;;7.95;4.75;;;;;;;;;;5344454;26;20144;-71
2024/04/23 02:16:39;;;;;;;9.02;4.82;;;;;;;;;;5405139;26;19999;-71
2024/04/23 02:19:06;;;;;;;11.52;5.07;;;;;;;;;;5350532;26;20008;-70
2024/04/23 02:21:32;;;;;;;9.52;4.88;;;;;;;;;;5375941;26;20004;-70
2024/04/23 02:23:59;;;;;;;6.70;5.00;;;;;;;;;;5373868;26;20044;-71
2024/04/23 02:26:26;;;;;;;7.88;4.93;;;;;;;;;;5375104;26;20000;-70
2024/04/23 02:28:53;;;;;;;8.43;4.80;;;;;;;;;;5375789;26;20000;-70
2024/04/23 02:31:20;;;;;;;10.27;5.18;;;;;;;;;;5375282;26;20449;-71
2024/04/23 02:33:47;;;;;;;7.10;4.80;;;;;;;;;;5375969;26;20011;-70
2024/04/23 02:36:14;;;;;;;6.15;4.28;;;;;;;;;;5344960;26;20008;-71
2024/04/23 02:38:40;;;;;;;9.93;5.60;;;;;;;;;;5345061;26;20011;-71
2024/04/23 02:41:07;;;;;;;5.47;4.65;;;;;;;;;;5374949;26;20283;-71
2024/04/23 02:43:34;;;;;;;9.27;5.38;;;;;;;;;;5375562;26;20056;-70
2024/04/23 02:46:01;;;;;;;11.05;4.93;;;;;;;;;;5375505;26;20500;-70
2024/04/23 02:48:28;;;;;;;7.25;4.80;;;;;;;;;;5378902;26;20315;-70
2024/04/23 02:50:54;;;;;;;6.82;4.85;;;;;;;;;;5411064;26;20132;-70
2024/04/23 02:53:21;;;;;;;10.00;4.95;;;;;;;;;;5410247;26;20007;-70
2024/04/23 02:55:48;;;;;;;9.13;4.85;;;;;;;;;;5410774;26;20003;-70
2024/04/23 02:58:15;;;;;;;6.95;5.10;;;;;;;;;;5410114;26;20014;-71
2024/04/23 03:00:42;;;;;;;11.07;5.50;;;;;;;;;;5410873;26;20337;-71
2024/04/23 03:03:09;;;;;;;7.50;4.90;;;;;;;;;;5410295;26;20007;-70
2024/04/23 03:05:36;;;;;;;9.25;5.10;;;;;;;;;;5410733;26;20004;-71
2024/04/23 03:08:02;;;;;;;7.75;5.07;;;;;;;;;;5410487;26;20007;-70
2024/04/23 03:10:29;;;;;;;8.85;5.32;;;;;;;;;;5408568;26;20014;-71
2024/04/23 03:12:56;;;;;;;7.03;4.85;;;;;;;;;;5411110;26;20371;-70
2024/04/23 03:15:23;;;;;;;11.85;6.07;;;;;;;;;;5410008;26;19999;-71
2024/04/23 03:17:50;;;;;;;9.23;5.78;;;;;;;;;;5410521;26;20007;-71
2024/04/23 03:20:17;;;;;;;7.55;5.68;;;;;;;;;;5410084;26;20010;-71
2024/04/23 03:22:44;;;;;;;6.53;5.03;;;;;;;;;;5410475;26;20014;-70
2024/04/23 03:25:10;;;;;;;8.35;5.72;;;;;;;;;;5410448;26;20528;-70
2024/04/23 03:27:37;;;;;;;7.65;5.18;;;;;;;;;;5410248;26;19996;-71
2024/04/23 03:30:04;;;;;;;9.23;5.65;;;;;;;;;;5410195;26;20015;-70
2024/04/23 03:32:32;;;;;;;6.95;5.10;;;;;;;;;;5409939;26;19999;-71
2024/04/23 03:34:59;;;;;;;7.57;5.00;;;;;;;;;;5410304;26;20010;-70
2024/04/23 03:37:26;;;;;;;8.45;5.28;;;;;;;;;;5410187;26;20003;-70
2024/04/23 03:39:53;;;;;;;7.57;5.53;;;;;;;;;;5409965;26;20097;-71
2024/04/23 03:42:20;;;;;;;7.85;5.72;;;;;;;;;;5407739;26;20003;-71
2024/04/23 03:44:46;;;;;;;6.93;5.57;;;;;;;;;;5410034;26;20007;-71
2024/04/23 03:47:14;;;;;;;8.65;5.78;;;;;;;;;;5409827;26;19992;-70
2024/04/23 03:49:41;;;;;;;6.95;5.30;;;;;;;;;;5408657;26;20000;-70
2024/04/23 03:52:08;;;;;;;9.10;6.28;;;;;;;;;;5409988;26;20028;-70
2024/04/23 03:54:35;;;;;;;7.60;6.10;;;;;;;;;;5409909;26;20087;-71
2024/04/23 03:57:02;;;;;;;11.00;6.60;;;;;;;;;;5407954;26;19999;-71
2024/04/23 03:59:29;;;;;;;9.15;6.55;;;;;;;;;;5410241;26;20003;-70
2024/04/23 04:07:28;;;;;;;14.07;8.25;;;;;;;;;;5412598;26;20011;-71
2024/04/23 04:09:54;;;;;;;15.40;8.15;;;;;;;;;;5413707;26;20000;-70
2024/04/23 04:12:21;;;;;;;12.65;9.07;;;;;;;;;;5411243;26;20073;-71
2024/04/23 04:14:48;;;;;;;14.02;8.75;;;;;;;;;;5413944;26;20003;-70
2024/04/23 04:17:15;;;;;;;13.43;8.95;;;;;;;;;;5411502;26;20003;-71
2024/04/23 04:19:42;;;;;;;15.38;9.52;;;;;;;;;;5413278;26;20007;-70
2024/04/23 04:22:08;;;;;;;13.85;10.68;;;;;;;;;;5412868;26;20011;-71
2024/04/23 04:24:35;;;;;;;15.63;9.55;;;;;;;;;;5411393;26;20348;-71
2024/04/23 04:27:02;;;;;;;13.02;9.77;;;;;;;;;;5411819;26;20018;-71
2024/04/23 04:29:29;;;;;;;16.20;9.43;;;;;;;;;;5413308;26;20000;-70
2024/04/23 04:31:55;;;;;;;16.83;10.98;;;;;;;;;;5411424;26;20489;-70
2024/04/23 04:34:22;;;;;;;17.42;10.35;;;;;;;;;;5410742;26;20072;-71
2024/04/23 04:36:49;;;;;;;15.82;10.38;;;;;;;;;;5412931;26;20018;-71
2024/04/23 04:39:16;;;;;;;18.33;10.68;;;;;;;;;;5412216;26;20003;-70
2024/04/23 04:41:43;;;;;;;14.85;10.20;;;;;;;;;;5413445;26;19999;-71
2024/04/23 04:44:10;;;;;;;15.55;10.30;;;;;;;;;;5381277;26;20003;-71
2024/04/23 04:46:37;;;;;;;15.75;10.50;;;;;;;;;;5411164;26;20040;-70
2024/04/23 04:49:03;;;;;;;17.17;10.10;;;;;;;;;;5412898;26;19999;-71
2024/04/23 04:51:30;;;;;;;18.65;10.20;;;;;;;;;;5412237;26;20004;-71
2024/04/23 04:53:57;;;;;;;16.35;9.63;;;;;;;;;;5410683;26;20080;-71
2024/04/23 04:56:27;;;;;;;17.92;10.02;;;;;;;;;;5412640;26;20029;-70
2024/04/23 04:58:54;;;;;;;19.77;10.75;;;;;;;;;;5412785;26;20429;-71
2024/04/23 05:01:20;;;;;;;17.05;10.70;;;;;;;;;;5410574;26;20031;-71
2024/04/23 05:03:47;;;;;;;15.95;9.55;;;;;;;;;;5413091;26;20015;-71
2024/04/23 05:06:14;;;;;;;12.85;7.82;;;;;;;;;;5412718;26;20015;-70
2024/04/23 05:08:41;;;;;;;12.27;7.18;;;;;;;;;;5413315;26;19999;-71
2024/04/23 05:11:08;;;;;;;10.18;7.00;;;;;;;;;;5413187;26;20060;-71
2024/04/23 05:13:35;;;;;;;12.65;7.40;;;;;;;;;;5413054;26;20011;-70
2024/04/23 05:16:01;;;;;;;13.20;7.07;;;;;;;;;;5412795;26;19996;-71
2024/04/23 05:18:28;;;;;;;10.75;8.00;;;;;;;;;;5412677;26;20011;-71
2024/04/23 05:20:55;;;;;;;10.45;6.88;;;;;;;;;;5411248;26;20000;-71
2024/04/23 05:23:22;;;;;;;9.73;7.40;;;;;;;;;;5412693;26;20000;-72
2024/04/23 05:25:48;;;;;;;14.70;7.60;;;;;;;;;;5412966;26;20007;-70
2024/04/23 05:28:15;;;;;;;11.70;7.50;;;;;;;;;;5412294;26;19999;-71
2024/04/23 05:33:29;;;;;;;11.27;7.60;;;;;;;;;;5412521;26;20325;-71
2024/04/23 05:35:56;;;;;;;9.60;7.60;;;;;;;;;;5411095;26;20000;-71
2024/04/23 05:38:22;;;;;;;15.68;7.53;;;;;;;;;;5410349;26;20010;-71
2024/04/23 05:40:49;;;;;;;13.70;7.95;;;;;;;;;;5410877;26;20076;-71
2024/04/23 05:43:16;;;;;;;11.43;7.15;;;;;;;;;;5412191;26;20003;-71
2024/04/23 05:45:43;;;;;;;12.35;7.10;;;;;;;;;;5412867;26;20003;-71
2024/04/23 05:48:47;;;;;;;12.32;7.30;;;;;;;;;;5410598;26;19995;-71
2024/04/23 05:51:51;;;;;;;13.32;7.47;;;;;;;;;;5412095;26;20698;-71
2024/04/23 05:54:56;;;;;;;11.93;7.40;;;;;;;;;;5410117;26;20014;-71
2024/04/23 05:57:22;;;;;;;12.15;6.95;;;;;;;;;;5412327;26;20000;-71
2024/04/23 05:59:49;;;;;;;12.18;7.45;;;;;;;;;;5412481;26;20014;-71
2024/04/23 06:02:16;;;;;;;13.30;7.28;;;;;;;;;;5405967;26;20003;-71
2024/04/23 06:04:43;;;;;;;13.43;7.55;;;;;;;;;;5409446;26;20014;-71
2024/04/23 06:07:09;;;;;;;10.93;7.30;;;;;;;;;;5411424;26;19999;-70
2024/04/23 06:09:36;;;;;;;13.70;7.20;;;;;;;;;;5410347;26;20531;-71
2024/04/23 06:12:03;;;;;;;15.15;7.72;;;;;;;;;;5400032;26;20008;-71
2024/04/23 06:14:30;;;;;;;11.63;7.22;;;;;;;;;;5375410;26;20443;-71
2024/04/23 06:17:15;;;;;;;11.82;7.20;;;;;;;;;;5397687;26;20008;-71
2024/04/23 06:19:49;;;;;;;9.88;7.75;;;;;;;;;;5374564;26;20027;-74
2024/04/23 06:22:19;;;;;;;11.77;7.13;;;;;;;;;;5402711;26;20011;-71
2024/04/23 06:24:47;;;;;;;12.93;8.55;;;;;;;;;;5376495;26;20023;-71
2024/04/23 06:27:16;;;;;;;11.73;7.38;;;;;;;;;;5406910;26;20011;-71
2024/04/23 06:29:43;;;;;;;;;;;;;;;;;;5409168;26;19995;-71
2024/04/23 06:32:11;;;;;;;11.07;7.20;;;;;;;;;;5409854;26;19925;-71
2024/04/23 06:34:39;;;;;;;14.20;7.25;;;;;;;;;;5409823;26;20003;-71
2024/04/23 06:37:06;;;;;;;12.18;7.20;;;;;;;;;;5407949;26;19999;-71
2024/04/23 06:39:33;;;;;;;11.50;7.53;;;;;;;;;;5410358;26;20361;-71
2024/04/23 06:41:59;;;;;;;12.50;6.85;;;;;;;;;;5410460;26;20014;-71
2024/04/23 06:44:26;;;;;;;10.27;7.13;;;;;;;;;;5393741;26;20434;-71
2024/04/23 06:46:53;;;;;;;9.15;6.70;;;;;;;;;;5420299;26;20010;-71
2024/04/23 06:49:20;;;;;;;9.85;7.18;;;;;;;;;;5391770;26;20014;-74
2024/04/23 06:51:47;;;;;;;10.80;7.18;;;;;;;;;;5410081;26;20428;-71
2024/04/23 06:54:14;;;;;;;8.25;6.38;;;;;;;;;;5431146;26;20429;-71
2024/04/23 06:56:41;;;;;;;9.05;6.70;;;;;;;;;;5410089;26;20007;-70
2024/04/23 06:59:08;;;;;;;11.35;5.93;;;;;;;;;;5407787;26;20430;-71
2024/04/23 07:01:35;;;;;;;9.60;6.10;;;;;;;;;;5410108;26;20028;-71
2024/04/23 07:04:02;;;;;;;9.65;5.70;;;;;;;;;;5409807;26;20080;-70
2024/04/23 07:06:29;;;;;;;9.23;6.35;;;;;;;;;;5407841;26;20317;-70
2024/04/23 07:08:56;;;;;;;9.20;5.30;;;;;;;;;;5386997;26;20447;-69
2024/04/23 07:11:24;;;;;;;9.68;4.90;;;;;;;;;;5409324;26;20003;-71
2024/04/23 07:13:51;;;;;;;8.48;5.35;;;;;;;;;;5409214;26;20008;-70
2024/04/23 07:16:18;;;;;;;8.88;6.05;;;;;;;;;;5409059;26;20000;-71
2024/04/23 07:18:44;;;;;;;10.55;5.65;;;;;;;;;;5410135;26;20503;-70
2024/04/23 07:21:25;;;;;;;8.30;5.10;;;;;;;;;;5409521;26;20335;-71
2024/04/23 07:23:52;;;;;;;8.65;5.07;;;;;;;;;;5409591;26;20018;-70
2024/04/23 07:26:19;;;;;;;7.15;4.55;;;;;;;;;;5409281;26;20010;-71
2024/04/23 07:28:46;;;;;;;8.68;5.07;;;;;;;;;;5409680;26;20343;-70
2024/04/23 07:31:12;;;;;;;7.57;4.75;;;;;;;;;;5383910;26;20442;-70
2024/04/23 07:33:39;;;;;;;7.50;4.82;;;;;;;;;;5409594;26;20007;-70
2024/04/23 07:36:07;;;;;;;7.45;4.55;;;;;;;;;;5409945;26;20516;-69
2024/04/23 07:38:35;;;;;;;8.48;5.00;;;;;;;;;;5413073;26;20076;-70
2024/04/23 07:41:02;;;;;;;10.33;5.27;;;;;;;;;;5412894;26;19999;-70
2024/04/23 07:43:29;;;;;;;7.95;5.03;;;;;;;;;;5412853;26;20076;-70
2024/04/23 07:45:56;;;;;;;10.05;5.10;;;;;;;;;;5409709;26;20000;-70
2024/04/23 07:48:23;;;;;;;8.02;4.85;;;;;;;;;;5404096;26;20014;-69
2024/04/23 07:50:50;;;;;;;6.50;4.43;;;;;;;;;;5403440;26;19999;-69
2024/04/23 07:53:17;;;;;;;7.20;5.03;;;;;;;;;;5400393;26;20030;-70
2024/04/23 07:55:44;;;;;;;8.85;5.15;;;;;;;;;;5396472;26;20035;-69
2024/04/23 07:58:11;;;;;;;12.23;6.30;;;;;;;;;;5409564;26;20007;-69
2024/04/23 08:00:37;;;;;;;7.50;5.43;;;;;;;;;;5403608;26;20725;-69
2024/04/23 08:03:07;;;;;;;7.18;5.32;;;;;;;;;;5406752;26;20429;-69
2024/04/23 08:05:37;;;;;;;8.77;5.45;;;;;;;;;;5401896;26;20076;-69
2024/04/23 08:08:04;;;;;;;6.38;4.97;;;;;;;;;;5388972;26;99736;-70
2024/04/23 08:10:31;;;;;;;8.85;5.18;;;;;;;;;;5375366;26;20001;-69
2024/04/23 08:12:58;;;;;;;7.15;5.15;;;;;;;;;;5631695;21;20079;-72
2024/04/23 08:15:24;;;;;;;8.60;5.20;;;;;;;;;;5339006;26;20013;-72
2024/04/23 08:17:52;;;;;;;7.63;4.72;;;;;;;;;;5339720;26;20492;-71
2024/04/23 08:20:19;;;;;;;7.50;5.35;;;;;;;;;;5341592;26;20025;-71
2024/04/23 08:22:46;;;;;;;6.35;5.13;;;;;;;;;;5341723;26;19996;-71
2024/04/23 08:25:17;;;;;;;6.40;4.82;;;;;;;;;;5341788;26;20004;-72
2024/04/23 08:27:45;;;;;;;5.72;4.72;;;;;;;;;;5341575;26;20380;-72
2024/04/23 08:30:12;;;;;;;5.82;4.70;;;;;;;;;;5338941;26;20001;-72
2024/04/23 08:32:42;;;;;;;5.75;4.53;;;;;;;;;;5341871;26;20012;-72
2024/04/23 08:35:09;;;;;;;5.50;4.25;;;;;;;;;;5341236;26;20015;-72
2024/04/23 08:37:35;;;;;;;7.28;4.78;;;;;;;;;;5341529;26;20001;-73
2024/04/23 08:40:02;;;;;;;5.38;4.43;;;;;;;;;;5340072;26;20001;-72
2024/04/23 08:42:34;;;;;;;7.88;4.95;;;;;;;;;;5340796;26;20443;-72
2024/04/23 08:45:02;;;;;;;5.95;4.85;;;;;;;;;;5341580;26;20001;-72
2024/04/23 08:47:29;;;;;;;6.28;4.97;;;;;;;;;;5340950;26;20435;-72
2024/04/23 08:49:56;;;;;;;6.75;4.13;;;;;;;;;;5341273;26;20060;-72
2024/04/23 08:52:23;;;;;;;8.15;5.03;;;;;;;;;;5341645;26;20389;-71
2024/04/23 08:54:50;;;;;;;6.70;4.40;;;;;;;;;;5341122;26;20011;-72
2024/04/23 08:57:18;;;;;;;8.85;4.55;;;;;;;;;;5363700;26;20016;-70
2024/04/23 08:59:46;;;;;;;7.60;4.78;;;;;;;;;;5341509;26;20015;-71
2024/04/23 09:02:25;;;;;;;8.18;4.47;;;;;;;;;;5340758;26;20490;-72
2024/04/23 09:04:55;;;;;;;7.35;4.53;;;;;;;;;;5342381;26;20001;-73
2024/04/23 09:07:23;;;;;;;5.90;4.20;;;;;;;;;;5338696;26;20012;-73
2024/04/23 09:09:58;;;;;;;6.60;4.13;;;;;;;;;;5338571;26;20001;-73
2024/04/23 09:12:26;;;;;;;7.82;4.45;;;;;;;;;;5331382;26;20002;-72
2024/04/23 09:14:55;;;;;;;6.45;4.22;;;;;;;;;;5367294;26;20000;-72
2024/04/23 09:17:23;;;;;;;;;;;;;;;;;;5371151;26;20092;-72
2024/04/23 09:19:50;;;;;;;4.88;3.95;;;;;;;;;;5316687;26;19926;-72
2024/04/23 09:22:18;;;;;;;7.40;4.13;;;;;;;;;;5375625;26;20008;-72
2024/04/23 09:24:44;;;;;;;5.55;3.85;;;;;;;;;;5375707;26;20282;-72
2024/04/23 09:27:11;;;;;;;6.28;3.95;;;;;;;;;;5376617;26;20004;-72
2024/04/23 09:29:38;;;;;;;4.85;3.95;;;;;;;;;;5376885;26;20000;-72
2024/04/23 09:32:05;;;;;;;8.05;4.80;;;;;;;;;;5345606;26;20004;-73
2024/04/23 09:34:32;;;;;;;5.85;4.38;;;;;;;;;;5345131;26;21375;-73
2024/04/23 09:37:17;;;;;;;7.50;3.92;;;;;;;;;;5375222;26;20614;-73
2024/04/23 09:39:44;;;;;;;6.32;3.90;;;;;;;;;;5376347;26;20442;-74
2024/04/23 09:42:22;;;;;;;;;;;;;;;;;;5375339;26;20036;-73
2024/04/23 09:44:50;;;;;;;7.60;4.43;;;;;;;;;;5368220;26;19925;-72
2024/04/23 09:47:18;;;;;;;5.88;4.03;;;;;;;;;;5341785;26;20078;-72
2024/04/23 09:49:55;;;;;;;5.55;4.00;;;;;;;;;;5360751;26;20460;-72
2024/04/23 09:52:30;;;;;;;6.28;4.00;;;;;;;;;;5345272;26;20011;-72
2024/04/23 09:54:57;;;;;;;5.55;3.83;;;;;;;;;;5376481;26;20000;-71
2024/04/23 09:57:24;;;;;;;8.95;5.63;;;;;;;;;;5376079;26;20012;-72
2024/04/23 09:59:50;;;;;;;7.80;4.35;;;;;;;;;;5376428;26;20000;-73
2024/04/23 10:02:26;;;;;;;5.72;4.53;;;;;;;;;;5390863;26;20000;-72
2024/04/23 10:05:00;;;;;;;6.57;4.82;;;;;;;;;;5377283;26;20078;-72
2024/04/23 10:07:36;;;;;;;5.13;4.50;;;;;;;;;;5351285;26;20554;-73
2024/04/23 10:10:07;;;;;;;9.65;5.10;;;;;;;;;;5411476;26;20000;-73
2024/04/23 10:12:41;;;;;;;6.30;4.88;;;;;;;;;;5407527;26;20019;-73
2024/04/23 10:15:16;;;;;;;9.68;4.20;;;;;;;;;;5392933;26;20003;-73
2024/04/23 10:18:11;;;;;;;5.82;4.13;;;;;;;;;;5379042;26;20004;-73
2024/04/23 10:20:44;;;;;;;8.27;4.22;;;;;;;;;;5379206;26;20008;-73
2024/04/23 10:23:15;;;;;;;6.40;4.35;;;;;;;;;;5347419;26;20001;-73
2024/04/23 10:25:42;;;;;;;8.23;4.55;;;;;;;;;;5376592;26;20027;-73
2024/04/23 10:28:09;;;;;;;7.60;4.50;;;;;;;;;;5376438;26;20003;-73
2024/04/23 10:30:37;;;;;;;6.88;4.28;;;;;;;;;;5375835;26;20011;-73
2024/04/23 10:33:05;;;;;;;6.68;4.10;;;;;;;;;;5368701;26;20078;-73
2024/04/23 10:35:33;;;;;;;7.85;3.90;;;;;;;;;;5355164;26;20005;-73
2024/04/23 10:38:02;;;;;;;6.60;3.53;;;;;;;;;;5353777;26;20012;-73
2024/04/23 10:40:30;;;;;;;5.20;3.88;;;;;;;;;;5371970;26;20004;-72
2024/04/23 10:43:14;;;;;;;6.15;4.03;;;;;;;;;;5374181;26;20000;-72
2024/04/23 10:45:41;;;;;;;6.10;4.00;;;;;;;;;;5340406;26;20000;-73
2024/04/23 10:48:09;;;;;;;6.47;3.83;;;;;;;;;;5343313;26;20358;-73
2024/04/23 10:50:37;;;;;;;6.47;3.70;;;;;;;;;;5374618;26;20014;-73
2024/04/23 10:53:04;;;;;;;6.00;3.88;;;;;;;;;;5374375;26;20011;-72
2024/04/23 10:55:31;;;;;;;5.15;3.72;;;;;;;;;;5374282;26;20004;-73
2024/04/23 10:57:58;;;;;;;5.90;4.18;;;;;;;;;;5374466;26;20008;-72
2024/04/23 11:00:35;;;;;;;8.65;4.13;;;;;;;;;;5314006;26;20008;-73
2024/04/23 11:03:25;;;;;;;6.38;4.22;;;;;;;;;;5374918;26;20032;-72
2024/04/23 11:05:53;;;;;;;12.80;4.65;;;;;;;;;;5342822;26;20041;-73
2024/04/23 11:08:23;;;;;;;5.93;4.22;;;;;;;;;;5372755;26;20315;-72
2024/04/23 11:11:04;;;;;;;4.60;4.07;;;;;;;;;;5343009;26;20419;-72
2024/04/23 11:13:40;;;;;;;5.30;3.90;;;;;;;;;;5373123;26;20047;-72
2024/04/23 11:16:18;;;;;;;6.55;3.90;;;;;;;;;;5373232;26;20012;-72
2024/04/23 11:18:48;;;;;;;6.05;4.18;;;;;;;;;;5373625;26;20081;-73
2024/04/23 11:21:28;;;;;;;7.45;4.15;;;;;;;;;;5377724;26;20004;-73
2024/04/23 11:23:59;;;;;;;6.35;4.18;;;;;;;;;;5369044;26;20027;-72
2024/04/23 11:26:29;;;;;;;5.43;3.90;;;;;;;;;;5373152;26;20414;-73
2024/04/23 11:28:57;;;;;;;7.75;4.38;;;;;;;;;;5370174;26;20000;-72
2024/04/23 11:31:24;;;;;;;5.90;3.93;;;;;;;;;;5377275;26;20023;-72
2024/04/23 11:33:52;;;;;;;8.00;3.88;;;;;;;;;;5372741;26;20015;-72
2024/04/23 11:36:26;;;;;;;6.32;4.45;;;;;;;;;;5342775;26;20008;-72
2024/04/23 11:38:56;;;;;;;7.40;4.72;;;;;;;;;;5381984;26;20011;-73
2024/04/23 11:41:22;;;;;;;7.72;4.20;;;;;;;;;;5340077;26;20011;-73
2024/04/23 11:43:49;;;;;;;6.82;4.25;;;;;;;;;;5372312;26;20000;-72
2024/04/23 11:46:16;;;;;;;6.03;3.67;;;;;;;;;;5364150;26;20001;-72
2024/04/23 11:48:44;;;;;;;6.90;4.28;;;;;;;;;;5377209;26;20000;-72
2024/04/23 11:51:12;;;;;;;8.93;4.53;;;;;;;;;;5373708;26;20011;-72
2024/04/23 11:53:39;;;;;;;8.07;4.40;;;;;;;;;;5343225;26;20013;-72
2024/04/23 11:56:06;;;;;;;7.45;4.15;;;;;;;;;;5372790;26;20024;-73
2024/04/23 11:58:42;;;;;;;5.53;3.45;;;;;;;;;;5373119;26;20023;-72
2024/04/23 12:01:09;;;;;;;4.72;3.40;;;;;;;;;;5351601;26;20008;-72
2024/04/23 12:03:37;;;;;;;5.10;3.30;;;;;;;;;;5343909;26;20000;-73
2024/04/23 12:06:05;;;;;;;6.03;3.80;;;;;;;;;;5383939;26;20031;-70
2024/04/23 12:08:34;;;;;;;4.95;3.53;;;;;;;;;;5397571;26;20247;-73
2024/04/23 12:11:02;;;;;;;7.60;3.38;;;;;;;;;;5386885;26;20015;-72
2024/04/23 12:13:29;;;;;;;8.15;3.75;;;;;;;;;;5363125;26;20023;-73
2024/04/23 12:15:56;;;;;;;5.70;3.58;;;;;;;;;;5373772;26;20000;-72
2024/04/23 12:18:23;;;;;;;5.32;3.20;;;;;;;;;;5374700;26;20000;-72
2024/04/23 12:20:50;;;;;;;4.60;3.47;;;;;;;;;;5384218;26;20000;-72
2024/04/23 12:23:17;;;;;;;8.40;3.10;;;;;;;;;;5386238;26;20011;-72
2024/04/23 12:25:45;;;;;;;6.00;3.40;;;;;;;;;;5378067;26;20008;-73
2024/04/23 12:28:12;;;;;;;6.47;3.45;;;;;;;;;;5347082;26;20023;-70
2024/04/23 12:30:40;;;;;;;9.38;2.80;;;;;;;;;;5378065;26;20012;-72
2024/04/23 12:33:11;;;;;;;3.72;2.85;;;;;;;;;;5377448;26;20015;-73
2024/04/23 12:35:39;;;;;;;5.47;2.90;;;;;;;;;;5377831;26;20064;-73
2024/04/23 12:38:09;;;;;;;4.53;3.38;;;;;;;;;;5377312;26;20232;-73
2024/04/23 12:40:39;;;;;;;6.13;3.60;;;;;;;;;;5377410;26;20325;-73
2024/04/23 12:43:10;;;;;;;3.88;3.13;;;;;;;;;;5388657;26;20011;-72
2024/04/23 12:45:38;;;;;;;5.45;3.20;;;;;;;;;;5377671;26;20000;-71
2024/04/23 12:48:05;;;;;;;6.40;3.70;;;;;;;;;;5376675;26;20515;-72
2024/04/23 12:50:32;;;;;;;6.10;3.38;;;;;;;;;;5377401;26;20526;-72
2024/04/23 12:52:59;;;;;;;5.95;2.80;;;;;;;;;;5377701;26;20081;-72
2024/04/23 12:55:27;;;;;;;6.20;3.10;;;;;;;;;;5377083;26;20004;-73
2024/04/23 12:57:54;;;;;;;5.68;3.22;;;;;;;;;;5377707;26;20000;-72
2024/04/23 13:00:21;;;;;;;6.32;3.30;;;;;;;;;;5377120;26;20015;-74
2024/04/23 13:02:48;;;;;;;5.20;2.95;;;;;;;;;;5377874;26;20011;-71
2024/04/23 13:05:15;;;;;;;4.13;3.13;;;;;;;;;;5376925;26;20049;-71
2024/04/23 13:07:42;;;;;;;6.60;3.53;;;;;;;;;;5377784;26;20501;-71
2024/04/23 13:10:09;;;;;;;6.97;2.70;;;;;;;;;;5376699;26;20012;-71
2024/04/23 13:12:36;;;;;;;6.70;2.78;;;;;;;;;;5377542;26;20001;-70
2024/04/23 13:15:03;;;;;;;7.55;2.75;;;;;;;;;;5377445;26;20415;-71
2024/04/23 13:17:30;;;;;;;5.22;2.60;;;;;;;;;;5376829;26;20004;-71
2024/04/23 13:19:57;;;;;;;6.60;2.85;;;;;;;;;;5377078;26;20012;-71
2024/04/23 13:22:27;;;;;;;6.30;2.20;;;;;;;;;;5376516;26;20055;-72
2024/04/23 13:24:54;;;;;;;2.90;2.30;;;;;;;;;;5346838;26;20800;-72
2024/04/23 13:27:21;;;;;;;4.95;2.22;;;;;;;;;;5376846;26;20044;-71
2024/04/23 13:29:47;;;;;;;3.20;2.28;;;;;;;;;;5377030;26;20015;-71
2024/04/23 13:32:14;;;;;;;4.25;2.17;;;;;;;;;;5344129;26;20001;-71
2024/04/23 13:34:41;;;;;;;3.97;2.42;;;;;;;;;;5377127;26;20004;-71
2024/04/23 13:37:08;;;;;;;5.97;2.33;;;;;;;;;;5376406;26;20008;-73
2024/04/23 13:39:35;;;;;;;26.58;3.55;;;;;;;;;;5376659;26;20449;-71
2024/04/23 13:42:02;;;;;;;4.63;2.78;;;;;;;;;;5376791;26;20000;-72
2024/04/23 13:44:29;;;;;;;6.25;3.15;;;;;;;;;;5375936;26;20000;-72
2024/04/23 13:46:56;;;;;;;3.72;2.65;;;;;;;;;;5377227;26;20552;-72
2024/04/23 13:49:23;;;;;;;4.88;2.90;;;;;;;;;;5376568;26;20495;-72
2024/04/23 13:51:50;;;;;;;4.20;2.97;;;;;;;;;;5355684;26;20019;-73
2024/04/23 13:54:17;;;;;;;5.20;3.30;;;;;;;;;;5358735;26;20036;-72
2024/04/23 13:56:43;;;;;;;4.75;2.92;;;;;;;;;;5351216;26;20441;-72
2024/04/23 13:59:10;;;;;;;2.60;2.30;;;;;;;;;;5381379;26;20000;-73
2024/04/23 14:01:40;;;;;;;3.58;2.70;;;;;;;;;;5343748;26;20483;-72
2024/04/23 14:04:07;;;;;;;4.05;2.05;;;;;;;;;;5373838;26;20427;-72
2024/04/23 14:06:34;;;;;;;5.43;2.40;;;;;;;;;;5374358;26;20000;-72
2024/04/23 14:09:01;;;;;;;3.53;2.40;;;;;;;;;;5343226;26;20004;-72
2024/04/23 14:11:29;;;;;;;2.83;2.50;;;;;;;;;;5386086;26;20031;-72
2024/04/23 14:13:56;;;;;;;3.97;2.72;;;;;;;;;;5384962;26;20019;-72
2024/04/23 14:16:23;;;;;;;3.13;2.80;;;;;;;;;;5352927;26;20016;-71
2024/04/23 14:18:52;;;;;;;6.93;3.72;;;;;;;;;;5342896;26;20472;-72
2024/04/23 14:21:18;;;;;;;8.50;4.18;;;;;;;;;;5373064;26;20031;-72
2024/04/23 14:23:45;;;;;;;4.70;3.83;;;;;;;;;;5374572;26;20008;-72
2024/04/23 14:26:16;;;;;;;5.60;3.95;;;;;;;;;;5343333;26;20014;-72
2024/04/23 14:28:44;;;;;;;7.13;3.90;;;;;;;;;;5374690;26;20012;-71
2024/04/23 14:31:11;;;;;;;6.50;4.47;;;;;;;;;;5373675;26;19997;-73
2024/04/23 14:33:43;;;;;;;6.43;3.83;;;;;;;;;;5375041;26;20004;-72
2024/04/23 14:36:12;;;;;;;8.07;4.05;;;;;;;;;;5314313;26;20604;-73
2024/04/23 14:38:39;;;;;;;5.28;3.53;;;;;;;;;;5372510;26;20000;-73
2024/04/23 14:41:06;;;;;;;4.82;2.92;;;;;;;;;;5406365;26;20003;-72
2024/04/23 14:43:33;;;;;;;6.97;3.13;;;;;;;;;;5385490;26;20431;-72
2024/04/23 14:46:11;;;;;;;7.53;4.00;;;;;;;;;;5341622;26;20001;-72
2024/04/23 14:48:38;;;;;;;5.28;3.70;;;;;;;;;;5351751;26;20013;-72
2024/04/23 14:51:06;;;;;;;5.32;3.78;;;;;;;;;;5373538;26;20000;-73
2024/04/23 14:53:32;;;;;;;4.25;3.45;;;;;;;;;;5320287;26;20027;-72